Dryden Regional Airport
CYHD : now visible

Airfield :











YOU CAN JOIN US ON...

 
LOGIN :

Register | Disclaimer

   EN    FR    IT 

 









Legend :    VFR   Marginal VFR   IFR   Intensive IFR   Very Intensive IFR
Visi :
Ceiling :
>= 8 km
>= 3000ft
5 to 8 km
1000 to 3000 ft
1500m to 5 km
500 to 1000 ft
800 to 1500m
200 to 500 ft
< 800m
< 200 ft
Symbols :   Thunderstorms  Fog  Heavy snow  Heavy precipitations  Wind > 20 kt






- Airport Elevation : 1354 ft
- IATA code : YHD


CYHD - Dryden Regional

CURRENT METAR :
  • 051900Z AUTO 27008KT 4SM -SN FEW010 OVC034 M06/M07 A2985 RMK SLP141

EXPIRED METARs :
  • 051833Z AUTO 25005KT 3SM -SN FEW010 OVC034 M06/M08 A2985 RMK SLP144
  • 051823Z AUTO 25006KT 2SM -SN BKN030 BKN038 OVC044 M07/M08 A2985 RMK SLP144
  • 051813Z AUTO 24005KT 1 1/2SM -SN OVC026 M07/M08 A2985 RMK SLP143
  • 051800Z AUTO 22005KT 1SM R12/P6000FT/U -SN OVC020 M07/M08 A2985 RMK PCPN 0.5MM PAST HR SLP145
  • 051700Z AUTO 21007KT 3/4SM R12/P6000FT/U -SN VV017 M08/M10 A2985 RMK SLP145

TAF AMD TAF CYHD
Valid from the 05 at 14:00 until the 06 at 02:00 UTC


051408Z 0514/0602 19006KT 11/2SM -SN OVC015
TEMPO 0514/0523 6SM -SN OVC025
BECMG 0520/0522 30010KT
FM052300 32010KT 6SM -SHSN OVC015 RMK FCST BASED ON AUTO OBS. NXT FCST BY 052000Z



MET'MAP, your aeronautical weather chart ! - Copyright ORBIFLY December 2007 - Disclaimer

ORBIFLY MET'MAP TEAM :

Programming & Development : Alexandra Zaïnal
Concept & original design : Baudouin d'Aumeries
Assistance for programming : Marc-Olivier Méhu
Technical & hardware support : Manuel Goepfert

Contact : metmap@orbifly.com




SOURCES & CREDITS :

   NOAA       Earth
Advisory